createdAt,value
2023-03-24T00:02:16.420Z,1.88
2023-03-24T00:04:59.588Z,1.63
2023-03-24T00:07:43.543Z,2.47
2023-03-24T00:10:30.659Z,1.60
2023-03-24T00:13:16.262Z,1.88
2023-03-24T00:15:59.439Z,1.80
2023-03-24T00:18:42.386Z,2.25
2023-03-24T00:21:26.501Z,2.20
2023-03-24T00:24:11.329Z,2.45
2023-03-24T00:26:57.636Z,2.40
2023-03-24T00:29:42.601Z,2.10
2023-03-24T00:32:25.716Z,2.35
2023-03-24T00:35:11.251Z,2.53
2023-03-24T00:37:54.208Z,1.90
2023-03-24T00:40:37.162Z,2.42
2023-03-24T00:43:20.289Z,2.30
2023-03-24T00:46:07.040Z,2.67
2023-03-24T00:48:51.270Z,2.50
2023-03-24T00:51:36.748Z,2.67
2023-03-24T00:54:21.938Z,2.63
2023-03-24T00:57:07.978Z,2.15
2023-03-24T00:59:51.556Z,2.55
2023-03-24T01:02:36.219Z,2.38
2023-03-24T01:08:07.423Z,1.95
2023-03-24T01:10:53.289Z,1.80
2023-03-24T01:13:36.270Z,1.90
2023-03-24T01:16:19.515Z,2.30
2023-03-24T01:19:04.202Z,2.50
2023-03-24T01:21:48.493Z,2.00
2023-03-24T01:24:31.403Z,2.15
2023-03-24T01:27:14.907Z,2.55
2023-03-24T01:30:00.256Z,2.25
2023-03-24T01:32:43.977Z,2.20
2023-03-24T01:35:29.557Z,2.28
2023-03-24T01:38:14.769Z,2.20
2023-03-24T01:43:40.528Z,2.33
2023-03-24T01:46:26.006Z,2.25
2023-03-24T01:49:09.640Z,2.50
2023-03-24T01:51:58.203Z,2.58
2023-03-24T01:54:44.263Z,2.80
2023-03-24T01:57:32.022Z,2.67
2023-03-24T02:00:18.500Z,2.47
2023-03-24T02:03:26.030Z,2.90
2023-03-24T02:06:14.271Z,3.20
2023-03-24T02:09:01.470Z,3.03
2023-03-24T02:11:45.906Z,2.80
2023-03-24T02:14:29.159Z,2.70
2023-03-24T02:17:34.416Z,2.80
2023-03-24T02:20:59.171Z,2.70
2023-03-24T02:24:23.757Z,2.55
2023-03-24T02:27:21.105Z,2.88
2023-03-24T02:30:20.950Z,3.08
2023-03-24T02:33:34.542Z,2.88
2023-03-24T02:36:48.499Z,2.60
2023-03-24T02:39:53.020Z,2.88
2023-03-24T02:42:45.810Z,2.92
2023-03-24T02:45:36.898Z,3.30
2023-03-24T02:48:27.497Z,2.13
2023-03-24T02:51:17.632Z,2.70
2023-03-24T02:54:12.303Z,2.60
2023-03-24T02:57:01.798Z,2.50
2023-03-24T03:00:09.461Z,2.47
2023-03-24T03:03:34.479Z,2.03
2023-03-24T03:06:22.693Z,2.78
2023-03-24T03:09:09.791Z,2.45
2023-03-24T03:11:57.347Z,2.70
2023-03-24T03:14:45.266Z,2.17
2023-03-24T03:17:34.182Z,2.15
2023-03-24T03:20:21.717Z,2.50
2023-03-24T03:23:08.613Z,2.30
2023-03-24T03:25:57.225Z,2.30
2023-03-24T03:28:50.178Z,2.30
2023-03-24T03:31:41.932Z,2.10
2023-03-24T03:34:34.726Z,2.30
2023-03-24T03:37:25.862Z,2.47
2023-03-24T03:40:13.417Z,2.05
2023-03-24T03:43:01.860Z,2.00
2023-03-24T03:45:45.490Z,2.20
2023-03-24T03:48:30.541Z,1.90
2023-03-24T03:51:15.971Z,1.90
2023-03-24T03:54:08.906Z,2.15
2023-03-24T03:56:52.395Z,2.15
2023-03-24T03:59:40.685Z,2.00
2023-03-24T04:02:40.366Z,2.28
2023-03-24T04:08:29.738Z,1.55
2023-03-24T04:11:43.728Z,2.00
2023-03-24T04:15:02.528Z,1.80
2023-03-24T04:18:29.738Z,1.50
2023-03-24T04:21:42.392Z,1.88
2023-03-24T04:24:40.301Z,1.83
2023-03-24T04:27:38.314Z,1.90
2023-03-24T04:30:30.298Z,1.70
2023-03-24T04:33:22.471Z,1.90
2023-03-24T04:36:18.246Z,1.83
2023-03-24T04:39:28.300Z,2.10
2023-03-24T04:42:18.926Z,2.47
2023-03-24T04:45:03.115Z,2.80
2023-03-24T04:48:09.267Z,2.22
2023-03-24T04:51:04.204Z,2.22
2023-03-24T04:54:03.039Z,2.58
2023-03-24T04:56:51.728Z,2.50
2023-03-24T04:59:46.228Z,2.90
2023-03-24T05:02:30.216Z,3.20
2023-03-24T05:05:22.355Z,2.50
2023-03-24T05:08:05.490Z,2.53
2023-03-24T05:10:48.587Z,2.97
2023-03-24T05:13:32.971Z,2.65
2023-03-24T05:16:18.074Z,2.78
2023-03-24T05:19:12.925Z,2.60
2023-03-24T05:21:56.549Z,2.38
2023-03-24T05:24:40.656Z,2.70
2023-03-24T05:27:23.540Z,2.13
2023-03-24T05:30:09.516Z,2.22
2023-03-24T05:32:54.760Z,2.10
2023-03-24T05:35:37.802Z,2.47
2023-03-24T05:38:21.090Z,2.50
2023-03-24T05:41:09.360Z,2.38
2023-03-24T05:43:56.622Z,2.65
2023-03-24T05:46:42.629Z,2.30
2023-03-24T05:49:26.121Z,2.17
2023-03-24T05:54:56.038Z,1.98
2023-03-24T05:57:43.512Z,2.60
2023-03-24T06:00:52.276Z,2.40
2023-03-24T06:03:49.323Z,2.35
2023-03-24T06:06:33.129Z,2.30
2023-03-24T06:09:16.946Z,2.30
2023-03-24T06:12:00.520Z,2.50
2023-03-24T06:14:43.929Z,2.45
2023-03-24T06:17:30.716Z,2.40
2023-03-24T06:20:19.290Z,2.30
2023-03-24T06:23:16.753Z,2.10
2023-03-24T06:26:16.926Z,2.20
2023-03-24T06:29:07.857Z,2.20
2023-03-24T06:31:53.932Z,2.10
2023-03-24T06:34:38.930Z,1.92
2023-03-24T06:37:46.991Z,2.15
2023-03-24T06:40:32.206Z,1.80
2023-03-24T06:43:15.525Z,2.10
2023-03-24T06:46:00.664Z,2.15
2023-03-24T06:48:47.154Z,2.05
2023-03-24T06:51:30.283Z,2.13
2023-03-24T06:54:14.599Z,2.40
2023-03-24T06:56:57.925Z,2.53
2023-03-24T06:59:45.728Z,3.17
2023-03-24T07:02:34.385Z,2.97
2023-03-24T07:05:19.172Z,2.50
2023-03-24T07:10:53.955Z,3.10
2023-03-24T07:13:37.603Z,2.85
2023-03-24T07:16:21.212Z,2.60
2023-03-24T07:19:11.535Z,2.30
2023-03-24T07:21:56.804Z,2.80
2023-03-24T07:24:54.293Z,2.60
2023-03-24T07:28:10.769Z,2.60
2023-03-24T07:30:55.508Z,2.90
2023-03-24T07:33:39.589Z,2.25
2023-03-24T07:36:22.582Z,2.30
2023-03-24T07:39:06.770Z,2.15
2023-03-24T07:41:51.420Z,3.20
2023-03-24T07:44:46.508Z,2.90
2023-03-24T07:47:29.684Z,3.40
2023-03-24T07:50:14.546Z,2.60
2023-03-24T07:55:43.186Z,2.90
2023-03-24T07:58:30.699Z,2.70
2023-03-24T08:01:39.025Z,2.60
2023-03-24T08:04:27.010Z,2.45
2023-03-24T08:07:13.937Z,3.33
2023-03-24T08:09:56.855Z,3.08
2023-03-24T08:12:39.820Z,2.20
2023-03-24T08:15:22.721Z,2.95
2023-03-24T08:18:07.085Z,2.70
2023-03-24T08:20:51.498Z,2.30
2023-03-24T08:23:35.855Z,3.33
2023-03-24T08:26:19.071Z,2.60
2023-03-24T08:29:02.065Z,3.00
2023-03-24T08:31:45.061Z,2.90
2023-03-24T08:34:29.539Z,3.20
2023-03-24T08:37:12.690Z,2.70
2023-03-24T08:39:58.700Z,2.80
2023-03-24T08:42:42.552Z,2.85
2023-03-24T08:45:27.610Z,3.10
2023-03-24T08:48:11.174Z,3.33
2023-03-24T08:50:56.338Z,3.05
2023-03-24T08:53:39.201Z,2.85
2023-03-24T08:56:23.559Z,2.83
2023-03-24T08:59:06.889Z,2.53
2023-03-24T09:01:50.081Z,2.70
2023-03-24T09:04:33.122Z,2.55
2023-03-24T09:07:17.377Z,2.63
2023-03-24T09:10:00.995Z,2.08
2023-03-24T09:12:45.387Z,2.88
2023-03-24T09:15:28.336Z,2.33
2023-03-24T09:18:11.291Z,11.50
2023-03-24T09:20:54.280Z,6.07
2023-03-24T09:23:38.587Z,3.78
2023-03-24T09:26:23.067Z,2.80
2023-03-24T09:29:06.123Z,2.63
2023-03-24T09:31:49.055Z,2.70
2023-03-24T09:34:32.668Z,2.70
2023-03-24T09:37:15.644Z,2.50
2023-03-24T09:40:01.436Z,2.67
2023-03-24T09:42:46.649Z,2.10
2023-03-24T09:45:33.801Z,2.20
2023-03-24T09:48:23.208Z,2.33
2023-03-24T09:51:10.991Z,2.10
2023-03-24T09:54:01.296Z,2.15
2023-03-24T09:57:06.154Z,2.50
2023-03-24T09:59:53.117Z,2.22
2023-03-24T10:02:36.497Z,2.30
2023-03-24T10:05:24.033Z,2.00
2023-03-24T10:08:16.370Z,2.03
2023-03-24T10:11:04.782Z,1.92
2023-03-24T10:13:59.260Z,2.10
2023-03-24T10:16:49.568Z,2.03
2023-03-24T10:19:42.117Z,2.20
2023-03-24T10:22:30.448Z,2.10
2023-03-24T10:25:19.530Z,2.15
2023-03-24T10:28:10.571Z,2.20
2023-03-24T10:30:57.452Z,1.88
2023-03-24T10:33:42.956Z,1.95
2023-03-24T10:36:26.131Z,2.00
2023-03-24T10:39:20.904Z,2.20
2023-03-24T10:42:07.061Z,1.73
2023-03-24T10:44:52.368Z,1.85
2023-03-24T10:47:37.513Z,2.17
2023-03-24T10:50:25.864Z,1.63
2023-03-24T10:53:10.692Z,2.30
2023-03-24T10:55:53.643Z,2.28
2023-03-24T10:58:39.730Z,2.05
2023-03-24T11:01:27.484Z,2.00
2023-03-24T11:04:15.405Z,2.10
2023-03-24T11:07:16.174Z,2.65
2023-03-24T11:10:02.126Z,2.40
2023-03-24T11:13:02.559Z,2.30
2023-03-24T11:15:55.775Z,1.80
2023-03-24T11:18:38.768Z,2.17
2023-03-24T11:21:23.610Z,2.08
2023-03-24T11:24:12.710Z,2.95
2023-03-24T11:27:00.203Z,2.58
2023-03-24T11:29:44.089Z,2.70
2023-03-24T11:32:30.010Z,2.27
2023-03-24T11:35:18.858Z,2.20
2023-03-24T11:38:07.691Z,2.00
2023-03-24T11:40:58.268Z,1.83
2023-03-24T11:43:41.176Z,1.77
2023-03-24T11:46:26.628Z,1.70
2023-03-24T11:49:11.320Z,2.00
2023-03-24T11:51:56.384Z,1.65
2023-03-24T11:54:41.024Z,1.75
2023-03-24T11:57:38.149Z,2.15
2023-03-24T12:00:24.525Z,1.77
2023-03-24T12:03:40.023Z,1.40
2023-03-24T12:06:36.698Z,1.67
2023-03-24T12:09:26.481Z,2.00
2023-03-24T12:12:23.791Z,1.80
2023-03-24T12:15:28.646Z,1.50
2023-03-24T12:21:12.053Z,1.20
2023-03-24T12:23:59.408Z,1.20
2023-03-24T12:26:43.938Z,1.75
2023-03-24T12:29:40.015Z,1.60
2023-03-24T12:32:38.543Z,1.23
2023-03-24T12:35:39.977Z,1.30
2023-03-24T12:38:36.257Z,1.85
2023-03-24T12:41:36.221Z,2.40
2023-03-24T12:44:36.668Z,2.38
2023-03-24T12:47:36.547Z,2.17
2023-03-24T12:50:32.624Z,2.15
2023-03-24T12:53:28.704Z,2.00
2023-03-24T12:56:16.261Z,1.60
2023-03-24T12:59:03.881Z,1.70
2023-03-24T13:01:53.625Z,2.25
2023-03-24T13:04:38.992Z,2.70
2023-03-24T13:07:25.850Z,2.42
2023-03-24T13:10:16.082Z,2.28
2023-03-24T13:13:04.834Z,2.70
2023-03-24T13:15:52.159Z,2.90
2023-03-24T13:18:40.777Z,2.38
2023-03-24T13:21:26.039Z,3.33
2023-03-24T13:24:14.805Z,2.85
2023-03-24T13:27:07.507Z,3.80
2023-03-24T13:30:09.632Z,3.75
2023-03-24T13:32:55.016Z,3.50
2023-03-24T13:35:57.379Z,3.72
2023-03-24T13:38:43.937Z,3.60
2023-03-24T13:41:28.013Z,3.17
2023-03-24T13:44:19.673Z,4.35
2023-03-24T13:47:09.793Z,3.70
2023-03-24T13:50:00.503Z,3.75
2023-03-24T13:52:49.495Z,3.25
2023-03-24T13:55:37.721Z,3.13
2023-03-24T13:58:23.605Z,3.10
2023-03-24T14:01:25.394Z,2.80
2023-03-24T14:04:28.687Z,3.10
2023-03-24T14:07:31.856Z,3.28
2023-03-24T14:10:42.626Z,3.20
2023-03-24T14:13:47.218Z,3.10
2023-03-24T14:16:52.051Z,3.10
2023-03-24T14:19:39.457Z,3.10
2023-03-24T14:22:25.645Z,3.75
2023-03-24T14:25:24.772Z,3.25
2023-03-24T14:28:19.517Z,3.53
2023-03-24T14:31:10.232Z,3.72
2023-03-24T14:34:03.521Z,3.88
2023-03-24T14:36:49.853Z,4.00
2023-03-24T14:39:36.984Z,3.30
2023-03-24T14:42:57.347Z,2.67
2023-03-24T14:45:53.359Z,3.13
2023-03-24T14:48:41.295Z,3.55
2023-03-24T14:51:36.741Z,3.33
2023-03-24T14:54:27.369Z,3.30
2023-03-24T14:57:16.588Z,4.10
2023-03-24T15:00:10.573Z,3.65
2023-03-24T15:02:59.622Z,4.25
2023-03-24T15:05:42.538Z,3.90
2023-03-24T15:08:28.282Z,3.60
2023-03-24T15:11:11.775Z,3.80
2023-03-24T15:13:55.435Z,3.45
2023-03-24T15:16:39.455Z,3.80
2023-03-24T15:19:25.950Z,3.90
2023-03-24T15:22:13.877Z,4.10
2023-03-24T15:24:59.291Z,4.78
2023-03-24T15:27:42.529Z,3.60
2023-03-24T15:30:26.150Z,3.70
2023-03-24T15:33:14.103Z,4.13
2023-03-24T15:36:00.176Z,4.28
2023-03-24T15:38:46.965Z,4.45
2023-03-24T15:41:29.911Z,4.90
2023-03-24T15:44:20.409Z,4.63
2023-03-24T15:47:04.621Z,4.93
2023-03-24T15:49:50.695Z,4.30
2023-03-24T15:52:37.582Z,4.63
2023-03-24T15:55:28.257Z,5.70
2023-03-24T15:58:23.553Z,6.18
2023-03-24T16:01:09.180Z,4.78
2023-03-24T16:03:52.324Z,5.68
2023-03-24T16:06:36.613Z,5.47
2023-03-24T16:09:27.337Z,4.53
2023-03-24T16:12:11.879Z,4.10
2023-03-24T16:14:54.740Z,5.03
2023-03-24T16:17:37.619Z,5.60
2023-03-24T16:20:23.334Z,5.88
2023-03-24T16:23:06.222Z,5.00
2023-03-24T16:25:50.556Z,5.45
2023-03-24T16:28:34.429Z,6.80
2023-03-24T16:31:24.504Z,10.67
2023-03-24T16:34:07.557Z,12.43
2023-03-24T16:36:51.730Z,7.80
2023-03-24T16:39:34.614Z,11.40
2023-03-24T16:42:18.829Z,21.27
2023-03-24T16:45:01.696Z,8.77
2023-03-24T16:47:46.511Z,14.88
2023-03-24T16:50:33.602Z,8.75
2023-03-24T16:53:17.093Z,9.65
2023-03-24T16:55:59.966Z,7.38
2023-03-24T16:58:44.244Z,6.07
2023-03-24T17:01:33.569Z,8.88
2023-03-24T17:04:19.754Z,6.05
2023-03-24T17:07:02.808Z,8.70
2023-03-24T17:09:47.588Z,7.70
2023-03-24T17:15:22.187Z,7.00
2023-03-24T17:18:05.417Z,8.27
2023-03-24T17:20:48.749Z,9.93
2023-03-24T17:23:31.889Z,11.52
2023-03-24T17:26:14.719Z,9.32
2023-03-24T17:28:57.694Z,6.90
2023-03-24T17:31:43.174Z,6.80
2023-03-24T17:34:26.412Z,6.22
2023-03-24T17:37:09.399Z,5.50
2023-03-24T17:39:52.291Z,5.05
2023-03-24T17:42:35.468Z,3.83
2023-03-24T17:45:20.148Z,3.78
2023-03-24T17:50:49.186Z,3.08
2023-03-24T17:53:33.627Z,4.13
2023-03-24T17:56:16.808Z,2.08
2023-03-24T17:59:00.418Z,1.40
2023-03-24T18:01:43.347Z,2.38
2023-03-24T18:04:27.764Z,1.52
2023-03-24T18:07:10.896Z,1.30
2023-03-24T18:09:53.834Z,1.00
2023-03-24T18:12:37.103Z,2.90
2023-03-24T18:15:19.994Z,1.83
2023-03-24T18:18:03.113Z,2.80
2023-03-24T18:20:47.583Z,1.30
2023-03-24T18:23:31.948Z,2.38
2023-03-24T18:26:15.948Z,1.95
2023-03-24T18:28:58.939Z,7.35
2023-03-24T18:31:41.810Z,2.88
2023-03-24T18:34:24.793Z,1.30
2023-03-24T18:37:09.584Z,1.50
2023-03-24T18:39:52.543Z,1.13
2023-03-24T18:42:35.915Z,1.38
2023-03-24T18:45:18.961Z,1.48
2023-03-24T18:48:01.875Z,1.42
2023-03-24T18:50:44.890Z,0.88
2023-03-24T18:53:29.063Z,0.90
2023-03-24T18:56:12.328Z,1.42
2023-03-24T18:58:55.669Z,1.10
2023-03-24T19:01:38.773Z,1.20
2023-03-24T19:04:21.744Z,1.05
2023-03-24T19:07:08.015Z,1.08
2023-03-24T19:09:52.737Z,0.93
2023-03-24T19:12:35.658Z,1.00
2023-03-24T19:15:19.475Z,1.20
2023-03-24T19:18:03.685Z,1.80
2023-03-24T19:20:47.012Z,2.47
2023-03-24T19:23:30.528Z,1.60
2023-03-24T19:26:16.539Z,1.30
2023-03-24T19:28:59.457Z,1.80
2023-03-24T19:31:43.749Z,1.17
2023-03-24T19:34:26.678Z,1.65
2023-03-24T19:37:10.319Z,1.33
2023-03-24T19:39:53.885Z,2.08
2023-03-24T19:42:40.462Z,1.00
2023-03-24T19:45:23.350Z,0.90
2023-03-24T19:48:06.437Z,0.98
2023-03-24T19:50:53.840Z,1.95
2023-03-24T19:53:36.778Z,1.17
2023-03-24T19:56:20.786Z,0.90
2023-03-24T19:59:05.066Z,1.13
2023-03-24T20:01:48.047Z,1.00
2023-03-24T20:04:31.243Z,0.70
2023-03-24T20:07:14.099Z,0.73
2023-03-24T20:09:57.006Z,1.02
2023-03-24T20:12:39.945Z,0.90
2023-03-24T20:15:24.387Z,0.80
2023-03-24T20:18:07.963Z,0.80
2023-03-24T20:20:51.210Z,0.80
2023-03-24T20:23:34.041Z,0.82
2023-03-24T20:26:17.110Z,0.73
2023-03-24T20:29:00.044Z,1.23
2023-03-24T20:31:44.892Z,0.93
2023-03-24T20:34:27.888Z,1.50
2023-03-24T20:37:10.841Z,2.92
2023-03-24T20:39:53.702Z,1.80
2023-03-24T20:42:36.895Z,0.98
2023-03-24T20:45:19.848Z,0.60
2023-03-24T20:48:04.282Z,1.13
2023-03-24T20:50:47.395Z,1.40
2023-03-24T20:53:32.880Z,0.82
2023-03-24T20:56:16.767Z,0.93
2023-03-24T20:59:01.092Z,0.60
2023-03-24T21:01:43.998Z,0.70
2023-03-24T21:04:28.320Z,0.70
2023-03-24T21:07:11.405Z,0.63
2023-03-24T21:09:54.494Z,0.50
2023-03-24T21:12:53.724Z,1.02
2023-03-24T21:15:43.373Z,4.20
2023-03-24T21:18:28.134Z,2.25
2023-03-24T21:21:13.434Z,1.00
2023-03-24T21:23:57.611Z,0.73
2023-03-24T21:26:40.589Z,0.70
2023-03-24T21:29:23.538Z,0.60
2023-03-24T21:32:06.531Z,0.60
2023-03-24T21:34:49.480Z,0.47
2023-03-24T21:37:33.698Z,0.52
2023-03-24T21:40:18.858Z,0.57
2023-03-24T21:43:05.230Z,0.80
2023-03-24T21:45:53.960Z,0.90
2023-03-24T21:48:40.079Z,0.70
2023-03-24T21:51:25.247Z,0.60
2023-03-24T21:54:09.704Z,0.70
2023-03-24T21:56:52.742Z,0.70
2023-03-24T21:59:37.692Z,0.65
2023-03-24T22:02:21.745Z,0.50
2023-03-24T22:05:07.053Z,0.63
2023-03-24T22:07:50.972Z,0.60
2023-03-24T22:10:36.124Z,0.60
2023-03-24T22:13:19.046Z,0.50
2023-03-24T22:16:04.043Z,0.80
2023-03-24T22:18:47.750Z,0.50
2023-03-24T22:21:32.260Z,0.70
2023-03-24T22:24:15.139Z,0.60
2023-03-24T22:26:59.550Z,0.60
2023-03-24T22:29:42.417Z,0.63
2023-03-24T22:32:25.485Z,0.63
2023-03-24T22:35:09.648Z,0.80
2023-03-24T22:37:52.561Z,0.63
2023-03-24T22:40:35.636Z,0.70
2023-03-24T22:43:23.065Z,0.70
2023-03-24T22:46:06.537Z,0.98
2023-03-24T22:48:49.409Z,1.10
2023-03-24T22:51:32.567Z,0.90
2023-03-24T22:54:15.417Z,1.48
2023-03-24T22:56:58.498Z,1.15
2023-03-24T22:59:42.757Z,1.40
2023-03-24T23:02:25.967Z,1.73
2023-03-24T23:05:09.435Z,1.48
2023-03-24T23:07:52.419Z,1.38
2023-03-24T23:10:35.302Z,1.77
2023-03-24T23:13:18.240Z,1.50
2023-03-24T23:16:03.045Z,2.00
2023-03-24T23:18:46.243Z,2.10
2023-03-24T23:21:29.889Z,2.00
2023-03-24T23:24:12.782Z,2.38
2023-03-24T23:26:55.637Z,1.60
2023-03-24T23:29:40.289Z,2.20
2023-03-24T23:35:08.862Z,2.38
2023-03-24T23:37:51.995Z,1.90
2023-03-24T23:40:35.284Z,2.00
2023-03-24T23:43:18.188Z,2.10
2023-03-24T23:46:01.323Z,1.95
2023-03-24T23:48:45.898Z,1.80
2023-03-24T23:51:28.897Z,1.75
2023-03-24T23:54:11.792Z,1.90
2023-03-24T23:56:54.685Z,2.42
2023-03-24T23:59:39.328Z,1.80
